sensor_id;sensor_type;location;lat;lon;timestamp;pressure;altitude;pressure_sealevel;temperature;humidity
48926;BME280;39838;59.938;30.642;2023-02-21T00:01:30;98581.84;;;-8.15;62.41
48926;BME280;39838;59.938;30.642;2023-02-21T00:04:14;98584.81;;;-8.25;62.41
48926;BME280;39838;59.938;30.642;2023-02-21T00:06:59;98586.03;;;-8.35;62.36
48926;BME280;39838;59.938;30.642;2023-02-21T00:09:43;98594.91;;;-8.44;62.52
48926;BME280;39838;59.938;30.642;2023-02-21T00:12:29;98594.41;;;-8.55;62.64
48926;BME280;39838;59.938;30.642;2023-02-21T00:15:15;98593.16;;;-8.65;62.77
48926;BME280;39838;59.938;30.642;2023-02-21T00:18:00;98599.06;;;-8.82;62.72
48926;BME280;39838;59.938;30.642;2023-02-21T00:20:44;98599.38;;;-8.94;62.73
48926;BME280;39838;59.938;30.642;2023-02-21T00:23:32;98597.94;;;-9.06;62.21
48926;BME280;39838;59.938;30.642;2023-02-21T00:26:17;98600.75;;;-9.18;62.24
48926;BME280;39838;59.938;30.642;2023-02-21T00:29:01;98608.81;;;-9.25;62.80
48926;BME280;39838;59.938;30.642;2023-02-21T00:31:47;98603.34;;;-9.34;62.13
48926;BME280;39838;59.938;30.642;2023-02-21T00:34:31;98610.59;;;-9.41;62.03
48926;BME280;39838;59.938;30.642;2023-02-21T00:37:15;98613.38;;;-9.52;63.13
48926;BME280;39838;59.938;30.642;2023-02-21T00:40:00;98621.09;;;-9.66;63.21
48926;BME280;39838;59.938;30.642;2023-02-21T00:42:44;98628.97;;;-9.76;62.56
48926;BME280;39838;59.938;30.642;2023-02-21T00:45:29;98628.03;;;-9.78;63.44
48926;BME280;39838;59.938;30.642;2023-02-21T00:48:18;98627.88;;;-9.81;63.19
48926;BME280;39838;59.938;30.642;2023-02-21T00:51:03;98633.72;;;-9.82;63.20
48926;BME280;39838;59.938;30.642;2023-02-21T00:53:48;98633.59;;;-9.83;62.93
48926;BME280;39838;59.938;30.642;2023-02-21T00:56:32;98629.78;;;-9.93;62.42
48926;BME280;39838;59.938;30.642;2023-02-21T00:59:16;98637.06;;;-9.98;62.93
48926;BME280;39838;59.938;30.642;2023-02-21T01:02:01;98641.16;;;-10.00;62.86
48926;BME280;39838;59.938;30.642;2023-02-21T01:04:46;98640.25;;;-10.02;62.73
48926;BME280;39838;59.938;30.642;2023-02-21T01:07:31;98644.09;;;-10.08;62.27
48926;BME280;39838;59.938;30.642;2023-02-21T01:10:15;98643.84;;;-10.13;61.94
48926;BME280;39838;59.938;30.642;2023-02-21T01:13:00;98648.47;;;-10.21;61.91
48926;BME280;39838;59.938;30.642;2023-02-21T01:15:44;98654.22;;;-10.23;62.80
48926;BME280;39838;59.938;30.642;2023-02-21T01:18:29;98655.66;;;-10.28;62.84
48926;BME280;39838;59.938;30.642;2023-02-21T01:21:16;98660.50;;;-10.31;62.40
48926;BME280;39838;59.938;30.642;2023-02-21T01:24:01;98664.19;;;-10.41;62.46
48926;BME280;39838;59.938;30.642;2023-02-21T01:26:46;98657.78;;;-10.51;62.42
48926;BME280;39838;59.938;30.642;2023-02-21T01:29:30;98666.97;;;-10.51;62.38
48926;BME280;39838;59.938;30.642;2023-02-21T01:32:14;98667.38;;;-10.60;62.16
48926;BME280;39838;59.938;30.642;2023-02-21T01:34:59;98668.94;;;-10.62;62.73
48926;BME280;39838;59.938;30.642;2023-02-21T01:37:45;98673.94;;;-10.62;62.29
48926;BME280;39838;59.938;30.642;2023-02-21T01:40:29;98678.66;;;-10.68;62.89
48926;BME280;39838;59.938;30.642;2023-02-21T01:43:15;98678.31;;;-10.74;62.94
48926;BME280;39838;59.938;30.642;2023-02-21T01:46:00;98688.34;;;-10.74;62.75
48926;BME280;39838;59.938;30.642;2023-02-21T01:48:45;98674.69;;;-10.79;62.23
48926;BME280;39838;59.938;30.642;2023-02-21T01:51:33;98686.53;;;-10.77;63.31
48926;BME280;39838;59.938;30.642;2023-02-21T01:54:21;98682.84;;;-10.83;62.55
48926;BME280;39838;59.938;30.642;2023-02-21T01:57:08;98697.09;;;-10.82;62.76
48926;BME280;39838;59.938;30.642;2023-02-21T01:59:54;98699.44;;;-10.85;62.97
48926;BME280;39838;59.938;30.642;2023-02-21T02:02:46;98670.22;;;-10.99;62.60
48926;BME280;39838;59.938;30.642;2023-02-21T02:05:32;98700.63;;;-10.79;63.05
48926;BME280;39838;59.938;30.642;2023-02-21T02:08:20;98704.28;;;-10.88;62.77
48926;BME280;39838;59.938;30.642;2023-02-21T02:11:19;98712.59;;;-10.89;62.65
48926;BME280;39838;59.938;30.642;2023-02-21T02:14:19;98695.75;;;-11.07;62.15
48926;BME280;39838;59.938;30.642;2023-02-21T02:16:57;98695.06;;;-11.19;63.11
48926;BME280;39838;59.938;30.642;2023-02-21T02:22:45;98726.63;;;-11.22;62.89
48926;BME280;39838;59.938;30.642;2023-02-21T02:25:27;98731.28;;;-11.29;63.31
48926;BME280;39838;59.938;30.642;2023-02-21T02:28:22;98733.53;;;-11.33;62.65
48926;BME280;39838;59.938;30.642;2023-02-21T02:34:29;98750.28;;;-11.47;62.81
48926;BME280;39838;59.938;30.642;2023-02-21T02:37:09;98748.47;;;-11.49;63.20
48926;BME280;39838;59.938;30.642;2023-02-21T02:39:44;98752.50;;;-11.51;63.71
48926;BME280;39838;59.938;30.642;2023-02-21T02:42:21;98760.81;;;-11.52;63.40
48926;BME280;39838;59.938;30.642;2023-02-21T02:44:55;98760.91;;;-11.51;62.44
48926;BME280;39838;59.938;30.642;2023-02-21T02:47:28;98770.75;;;-11.54;63.31
48926;BME280;39838;59.938;30.642;2023-02-21T02:49:59;98772.81;;;-11.62;62.82
48926;BME280;39838;59.938;30.642;2023-02-21T02:52:26;98787.47;;;-11.68;63.07
48926;BME280;39838;59.938;30.642;2023-02-21T02:54:58;98778.41;;;-11.80;62.78
48926;BME280;39838;59.938;30.642;2023-02-21T02:57:27;98769.09;;;-11.96;63.33
48926;BME280;39838;59.938;30.642;2023-02-21T02:59:55;98803.75;;;-11.89;62.75
48926;BME280;39838;59.938;30.642;2023-02-21T03:02:36;98805.81;;;-11.97;63.13
48926;BME280;39838;59.938;30.642;2023-02-21T03:05:24;98819.78;;;-12.00;62.96
48926;BME280;39838;59.938;30.642;2023-02-21T03:07:59;98823.06;;;-12.01;63.05
48926;BME280;39838;59.938;30.642;2023-02-21T03:10:37;98824.97;;;-11.97;63.08
48926;BME280;39838;59.938;30.642;2023-02-21T03:13:12;98828.59;;;-11.92;62.99
48926;BME280;39838;59.938;30.642;2023-02-21T03:15:46;98842.50;;;-11.97;63.55
48926;BME280;39838;59.938;30.642;2023-02-21T03:18:19;98842.31;;;-12.00;62.92
48926;BME280;39838;59.938;30.642;2023-02-21T03:20:55;98845.28;;;-12.06;63.17
48926;BME280;39838;59.938;30.642;2023-02-21T03:23:26;98856.78;;;-12.09;63.07
48926;BME280;39838;59.938;30.642;2023-02-21T03:25:55;98851.69;;;-12.11;63.07
48926;BME280;39838;59.938;30.642;2023-02-21T03:28:24;98859.19;;;-12.11;63.06
48926;BME280;39838;59.938;30.642;2023-02-21T03:30:53;98853.19;;;-12.13;63.12
48926;BME280;39838;59.938;30.642;2023-02-21T03:33:22;98868.72;;;-12.19;62.94
48926;BME280;39838;59.938;30.642;2023-02-21T03:35:51;98865.72;;;-12.26;63.50
48926;BME280;39838;59.938;30.642;2023-02-21T03:38:18;98867.28;;;-12.28;63.22
48926;BME280;39838;59.938;30.642;2023-02-21T03:40:45;98870.25;;;-12.34;63.76
48926;BME280;39838;59.938;30.642;2023-02-21T03:43:12;98877.88;;;-12.32;63.80
48926;BME280;39838;59.938;30.642;2023-02-21T03:45:40;98873.34;;;-12.38;63.56
48926;BME280;39838;59.938;30.642;2023-02-21T03:48:07;98868.22;;;-12.40;63.96
48926;BME280;39838;59.938;30.642;2023-02-21T03:50:34;98878.59;;;-12.47;63.16
48926;BME280;39838;59.938;30.642;2023-02-21T03:53:02;98878.44;;;-12.50;64.06
48926;BME280;39838;59.938;30.642;2023-02-21T03:55:30;98885.84;;;-12.51;63.27
48926;BME280;39838;59.938;30.642;2023-02-21T03:57:57;98891.22;;;-12.58;63.56
48926;BME280;39838;59.938;30.642;2023-02-21T04:00:24;98900.16;;;-12.62;64.06
48926;BME280;39838;59.938;30.642;2023-02-21T04:02:51;98898.25;;;-12.66;63.59
48926;BME280;39838;59.938;30.642;2023-02-21T04:05:18;98910.59;;;-12.81;63.34
48926;BME280;39838;59.938;30.642;2023-02-21T04:07:45;98914.31;;;-12.87;63.94
48926;BME280;39838;59.938;30.642;2023-02-21T04:10:14;98920.84;;;-12.89;64.15
48926;BME280;39838;59.938;30.642;2023-02-21T04:12:41;98921.63;;;-12.90;63.86
48926;BME280;39838;59.938;30.642;2023-02-21T04:15:09;98893.75;;;-13.08;64.30
48926;BME280;39838;59.938;30.642;2023-02-21T04:17:37;98935.78;;;-12.91;64.25
48926;BME280;39838;59.938;30.642;2023-02-21T04:20:04;98935.00;;;-12.90;64.29
48926;BME280;39838;59.938;30.642;2023-02-21T04:22:32;98940.97;;;-12.88;64.33
48926;BME280;39838;59.938;30.642;2023-02-21T04:24:59;98934.03;;;-12.92;63.97
48926;BME280;39838;59.938;30.642;2023-02-21T04:27:27;98946.53;;;-12.92;63.73
48926;BME280;39838;59.938;30.642;2023-02-21T04:29:54;98959.69;;;-12.95;64.08
48926;BME280;39838;59.938;30.642;2023-02-21T04:32:21;98965.16;;;-13.00;64.28
48926;BME280;39838;59.938;30.642;2023-02-21T04:34:49;98967.81;;;-13.10;63.92
48926;BME280;39838;59.938;30.642;2023-02-21T04:37:16;98974.13;;;-13.15;64.24
48926;BME280;39838;59.938;30.642;2023-02-21T04:39:43;98978.91;;;-13.18;64.38
48926;BME280;39838;59.938;30.642;2023-02-21T04:42:10;98975.50;;;-13.20;64.35
48926;BME280;39838;59.938;30.642;2023-02-21T04:44:38;98986.41;;;-13.18;64.42
48926;BME280;39838;59.938;30.642;2023-02-21T04:47:05;98999.06;;;-13.29;64.19
48926;BME280;39838;59.938;30.642;2023-02-21T04:49:32;98995.59;;;-13.31;64.42
48926;BME280;39838;59.938;30.642;2023-02-21T04:51:59;99000.59;;;-13.31;64.42
48926;BME280;39838;59.938;30.642;2023-02-21T04:54:27;99007.44;;;-13.28;64.53
48926;BME280;39838;59.938;30.642;2023-02-21T04:56:54;99008.75;;;-13.33;64.56
48926;BME280;39838;59.938;30.642;2023-02-21T04:59:21;99018.84;;;-13.32;65.08
48926;BME280;39838;59.938;30.642;2023-02-21T05:01:49;99026.13;;;-13.35;64.80
48926;BME280;39838;59.938;30.642;2023-02-21T05:04:16;99023.63;;;-13.35;64.62
48926;BME280;39838;59.938;30.642;2023-02-21T05:06:43;99027.88;;;-13.34;64.34
48926;BME280;39838;59.938;30.642;2023-02-21T05:09:11;99035.16;;;-13.37;64.33
48926;BME280;39838;59.938;30.642;2023-02-21T05:11:38;99038.31;;;-13.39;64.36
48926;BME280;39838;59.938;30.642;2023-02-21T05:14:05;99041.03;;;-13.48;64.43
48926;BME280;39838;59.938;30.642;2023-02-21T05:16:32;99048.50;;;-13.48;64.12
48926;BME280;39838;59.938;30.642;2023-02-21T05:19:01;99050.91;;;-13.50;64.45
48926;BME280;39838;59.938;30.642;2023-02-21T05:21:28;99062.44;;;-13.52;64.64
48926;BME280;39838;59.938;30.642;2023-02-21T05:23:55;99043.97;;;-13.65;64.57
48926;BME280;39838;59.938;30.642;2023-02-21T05:26:25;99060.72;;;-13.53;64.51
48926;BME280;39838;59.938;30.642;2023-02-21T05:28:52;99069.41;;;-13.47;64.30
48926;BME280;39838;59.938;30.642;2023-02-21T05:31:19;99080.25;;;-13.47;64.19
48926;BME280;39838;59.938;30.642;2023-02-21T05:33:47;99085.03;;;-13.50;64.31
48926;BME280;39838;59.938;30.642;2023-02-21T05:36:16;99085.03;;;-13.50;64.46
48926;BME280;39838;59.938;30.642;2023-02-21T05:38:44;99093.38;;;-13.50;64.08
48926;BME280;39838;59.938;30.642;2023-02-21T05:41:12;99098.81;;;-13.55;64.37
48926;BME280;39838;59.938;30.642;2023-02-21T05:43:39;99107.63;;;-13.60;64.12
48926;BME280;39838;59.938;30.642;2023-02-21T05:46:06;99112.38;;;-13.63;64.48
48926;BME280;39838;59.938;30.642;2023-02-21T05:48:33;99111.75;;;-13.61;64.46
48926;BME280;39838;59.938;30.642;2023-02-21T05:51:00;99121.53;;;-13.52;64.25
48926;BME280;39838;59.938;30.642;2023-02-21T05:53:28;99129.09;;;-13.62;64.37
48926;BME280;39838;59.938;30.642;2023-02-21T05:55:56;99134.09;;;-13.62;64.26
48926;BME280;39838;59.938;30.642;2023-02-21T05:58:23;99117.19;;;-13.66;64.24
48926;BME280;39838;59.938;30.642;2023-02-21T06:00:50;99129.44;;;-13.69;64.48
48926;BME280;39838;59.938;30.642;2023-02-21T06:03:18;99138.47;;;-13.60;64.87
48926;BME280;39838;59.938;30.642;2023-02-21T06:05:45;99143.47;;;-13.60;64.30
48926;BME280;39838;59.938;30.642;2023-02-21T06:08:12;99137.59;;;-13.60;64.41
48926;BME280;39838;59.938;30.642;2023-02-21T06:10:41;99149.78;;;-13.53;64.71
48926;BME280;39838;59.938;30.642;2023-02-21T06:13:08;99144.88;;;-13.52;64.85
48926;BME280;39838;59.938;30.642;2023-02-21T06:15:35;99158.44;;;-13.48;64.53
48926;BME280;39838;59.938;30.642;2023-02-21T06:18:02;99161.72;;;-13.37;64.84
48926;BME280;39838;59.938;30.642;2023-02-21T06:20:29;99153.91;;;-13.30;64.44
48926;BME280;39838;59.938;30.642;2023-02-21T06:22:57;99164.00;;;-13.29;64.06
48926;BME280;39838;59.938;30.642;2023-02-21T06:25:24;99170.97;;;-13.25;64.28
48926;BME280;39838;59.938;30.642;2023-02-21T06:27:52;99171.50;;;-13.17;64.52
48926;BME280;39838;59.938;30.642;2023-02-21T06:30:19;99175.84;;;-13.14;63.94
48926;BME280;39838;59.938;30.642;2023-02-21T06:32:47;99179.53;;;-13.09;64.09
48926;BME280;39838;59.938;30.642;2023-02-21T06:35:14;99184.88;;;-13.05;63.99
48926;BME280;39838;59.938;30.642;2023-02-21T06:37:41;99187.28;;;-13.06;64.09
48926;BME280;39838;59.938;30.642;2023-02-21T06:40:08;99190.22;;;-13.00;64.44
48926;BME280;39838;59.938;30.642;2023-02-21T06:42:36;99197.59;;;-12.90;63.82
48926;BME280;39838;59.938;30.642;2023-02-21T06:45:05;99198.22;;;-12.81;64.55
48926;BME280;39838;59.938;30.642;2023-02-21T06:47:32;99209.97;;;-12.68;63.99
48926;BME280;39838;59.938;30.642;2023-02-21T06:49:59;99216.59;;;-12.57;63.51
48926;BME280;39838;59.938;30.642;2023-02-21T06:52:26;99224.63;;;-12.61;63.23
48926;BME280;39838;59.938;30.642;2023-02-21T06:54:53;99232.81;;;-12.63;63.59
48926;BME280;39838;59.938;30.642;2023-02-21T06:57:20;99228.88;;;-12.60;63.97
48926;BME280;39838;59.938;30.642;2023-02-21T06:59:47;99230.63;;;-12.59;63.79
48926;BME280;39838;59.938;30.642;2023-02-21T07:02:18;99232.13;;;-12.49;63.87
48926;BME280;39838;59.938;30.642;2023-02-21T07:04:45;99249.56;;;-12.39;63.24
48926;BME280;39838;59.938;30.642;2023-02-21T07:07:13;99253.78;;;-12.38;63.27
48926;BME280;39838;59.938;30.642;2023-02-21T07:09:40;99258.03;;;-12.37;63.97
48926;BME280;39838;59.938;30.642;2023-02-21T07:12:07;99256.81;;;-12.30;64.08
48926;BME280;39838;59.938;30.642;2023-02-21T07:14:34;99273.22;;;-12.22;63.08
48926;BME280;39838;59.938;30.642;2023-02-21T07:17:02;99276.25;;;-12.15;63.83
48926;BME280;39838;59.938;30.642;2023-02-21T07:19:30;99285.94;;;-12.07;63.54
48926;BME280;39838;59.938;30.642;2023-02-21T07:21:57;99288.97;;;-12.00;63.50
48926;BME280;39838;59.938;30.642;2023-02-21T07:24:24;99295.06;;;-11.96;63.00
48926;BME280;39838;59.938;30.642;2023-02-21T07:26:51;99298.53;;;-11.94;63.56
48926;BME280;39838;59.938;30.642;2023-02-21T07:29:18;99299.19;;;-11.85;63.56
48926;BME280;39838;59.938;30.642;2023-02-21T07:31:46;99308.44;;;-11.84;62.56
48926;BME280;39838;59.938;30.642;2023-02-21T07:34:13;99316.72;;;-11.85;62.57
48926;BME280;39838;59.938;30.642;2023-02-21T07:36:42;99313.47;;;-11.84;63.23
48926;BME280;39838;59.938;30.642;2023-02-21T07:39:10;99318.09;;;-11.77;62.94
48926;BME280;39838;59.938;30.642;2023-02-21T07:41:38;99326.88;;;-11.70;62.59
48926;BME280;39838;59.938;30.642;2023-02-21T07:44:05;99328.59;;;-11.58;62.74
48926;BME280;39838;59.938;30.642;2023-02-21T07:46:32;99335.50;;;-11.42;63.23
48926;BME280;39838;59.938;30.642;2023-02-21T07:49:00;99338.06;;;-11.29;62.68
48926;BME280;39838;59.938;30.642;2023-02-21T07:51:28;99325.63;;;-11.27;62.78
48926;BME280;39838;59.938;30.642;2023-02-21T07:53:57;99344.78;;;-11.16;62.59
48926;BME280;39838;59.938;30.642;2023-02-21T07:56:24;99336.56;;;-11.13;63.04
48926;BME280;39838;59.938;30.642;2023-02-21T07:58:51;99359.59;;;-10.94;62.30
48926;BME280;39838;59.938;30.642;2023-02-21T08:01:21;99363.38;;;-10.87;63.04
48926;BME280;39838;59.938;30.642;2023-02-21T08:03:48;99372.97;;;-10.82;62.59
48926;BME280;39838;59.938;30.642;2023-02-21T08:06:15;99374.50;;;-10.70;62.03
48926;BME280;39838;59.938;30.642;2023-02-21T08:08:43;99375.72;;;-10.52;63.07
48926;BME280;39838;59.938;30.642;2023-02-21T08:11:12;99380.38;;;-10.32;62.91
48926;BME280;39838;59.938;30.642;2023-02-21T08:13:39;99374.38;;;-10.21;62.27
48926;BME280;39838;59.938;30.642;2023-02-21T08:16:06;99378.91;;;-10.15;62.35
48926;BME280;39838;59.938;30.642;2023-02-21T08:18:33;99382.97;;;-10.04;62.14
48926;BME280;39838;59.938;30.642;2023-02-21T08:21:00;99394.56;;;-9.93;61.39
48926;BME280;39838;59.938;30.642;2023-02-21T08:23:27;99395.72;;;-9.87;61.55
48926;BME280;39838;59.938;30.642;2023-02-21T08:25:54;99401.03;;;-9.96;61.37
48926;BME280;39838;59.938;30.642;2023-02-21T08:28:23;99402.50;;;-10.00;61.22
48926;BME280;39838;59.938;30.642;2023-02-21T08:30:50;99417.19;;;-9.93;61.51
48926;BME280;39838;59.938;30.642;2023-02-21T08:33:18;99412.16;;;-9.93;61.55
48926;BME280;39838;59.938;30.642;2023-02-21T08:35:45;99417.47;;;-9.88;62.21
48926;BME280;39838;59.938;30.642;2023-02-21T08:38:12;99427.72;;;-9.85;61.26
48926;BME280;39838;59.938;30.642;2023-02-21T08:40:40;99430.53;;;-9.80;61.17
48926;BME280;39838;59.938;30.642;2023-02-21T08:43:07;99433.13;;;-9.66;62.35
48926;BME280;39838;59.938;30.642;2023-02-21T08:45:35;99433.41;;;-9.61;61.96
48926;BME280;39838;59.938;30.642;2023-02-21T08:48:03;99438.63;;;-9.58;62.00
48926;BME280;39838;59.938;30.642;2023-02-21T08:50:30;99441.59;;;-9.50;61.24
48926;BME280;39838;59.938;30.642;2023-02-21T08:52:58;99448.66;;;-9.45;61.74
48926;BME280;39838;59.938;30.642;2023-02-21T08:55:25;99445.06;;;-9.48;61.62
48926;BME280;39838;59.938;30.642;2023-02-21T08:57:53;99458.72;;;-9.45;61.52
48926;BME280;39838;59.938;30.642;2023-02-21T09:00:22;99445.28;;;-9.45;61.50
48926;BME280;39838;59.938;30.642;2023-02-21T09:02:52;99457.34;;;-9.26;60.56
48926;BME280;39838;59.938;30.642;2023-02-21T09:05:21;99466.22;;;-9.18;61.21
48926;BME280;39838;59.938;30.642;2023-02-21T09:07:49;99465.31;;;-9.05;60.58
48926;BME280;39838;59.938;30.642;2023-02-21T09:10:20;99465.09;;;-8.95;60.57
48926;BME280;39838;59.938;30.642;2023-02-21T09:12:47;99466.69;;;-8.83;60.45
48926;BME280;39838;59.938;30.642;2023-02-21T09:15:14;99468.31;;;-8.70;60.66
48926;BME280;39838;59.938;30.642;2023-02-21T09:17:42;99475.00;;;-8.56;60.66
48926;BME280;39838;59.938;30.642;2023-02-21T09:20:14;99478.09;;;-8.46;60.44
48926;BME280;39838;59.938;30.642;2023-02-21T09:22:42;99482.91;;;-8.35;59.64
48926;BME280;39838;59.938;30.642;2023-02-21T09:25:11;99486.06;;;-8.24;59.18
48926;BME280;39838;59.938;30.642;2023-02-21T09:27:39;99483.03;;;-8.18;59.29
48926;BME280;39838;59.938;30.642;2023-02-21T09:30:09;99490.25;;;-8.10;58.51
48926;BME280;39838;59.938;30.642;2023-02-21T09:32:37;99487.31;;;-8.03;59.11
48926;BME280;39838;59.938;30.642;2023-02-21T09:35:06;99490.97;;;-7.98;58.43
48926;BME280;39838;59.938;30.642;2023-02-21T09:37:37;99491.47;;;-7.88;58.68
48926;BME280;39838;59.938;30.642;2023-02-21T09:42:39;99491.81;;;-7.97;57.96
48926;BME280;39838;59.938;30.642;2023-02-21T09:45:13;99497.53;;;-8.00;57.86
48926;BME280;39838;59.938;30.642;2023-02-21T09:47:42;99502.50;;;-7.86;58.19
48926;BME280;39838;59.938;30.642;2023-02-21T09:50:13;99499.03;;;-7.74;58.59
48926;BME280;39838;59.938;30.642;2023-02-21T09:52:42;99511.19;;;-7.66;58.28
48926;BME280;39838;59.938;30.642;2023-02-21T09:55:19;99501.38;;;-7.62;57.81
48926;BME280;39838;59.938;30.642;2023-02-21T09:57:47;99504.94;;;-7.58;57.79
48926;BME280;39838;59.938;30.642;2023-02-21T10:00:16;99503.38;;;-7.56;57.43
48926;BME280;39838;59.938;30.642;2023-02-21T10:02:53;99506.03;;;-7.53;57.50
48926;BME280;39838;59.938;30.642;2023-02-21T10:05:32;99501.53;;;-7.44;57.34
48926;BME280;39838;59.938;30.642;2023-02-21T10:08:08;99512.91;;;-7.36;56.93
48926;BME280;39838;59.938;30.642;2023-02-21T10:10:42;99496.28;;;-7.47;57.27
48926;BME280;39838;59.938;30.642;2023-02-21T10:13:21;99520.28;;;-7.39;56.70
48926;BME280;39838;59.938;30.642;2023-02-21T10:15:57;99524.47;;;-7.39;56.85
48926;BME280;39838;59.938;30.642;2023-02-21T10:18:32;99517.59;;;-7.42;56.58
48926;BME280;39838;59.938;30.642;2023-02-21T10:21:01;99522.91;;;-7.52;56.50
48926;BME280;39838;59.938;30.642;2023-02-21T10:23:37;99523.97;;;-7.49;56.42
48926;BME280;39838;59.938;30.642;2023-02-21T10:26:08;99529.50;;;-7.39;56.82
48926;BME280;39838;59.938;30.642;2023-02-21T10:28:36;99514.28;;;-7.41;56.54
48926;BME280;39838;59.938;30.642;2023-02-21T10:31:07;99534.38;;;-7.28;56.17
48926;BME280;39838;59.938;30.642;2023-02-21T10:33:37;99534.97;;;-7.32;56.10
48926;BME280;39838;59.938;30.642;2023-02-21T10:36:10;99546.38;;;-7.24;56.20
48926;BME280;39838;59.938;30.642;2023-02-21T10:38:41;99549.34;;;-7.16;56.21
48926;BME280;39838;59.938;30.642;2023-02-21T10:41:09;99555.41;;;-7.12;55.96
48926;BME280;39838;59.938;30.642;2023-02-21T10:43:42;99559.44;;;-7.16;55.47
48926;BME280;39838;59.938;30.642;2023-02-21T10:46:14;99562.22;;;-7.26;55.71
48926;BME280;39838;59.938;30.642;2023-02-21T10:48:46;99553.53;;;-7.31;55.33
48926;BME280;39838;59.938;30.642;2023-02-21T10:51:15;99562.75;;;-7.17;56.00
48926;BME280;39838;59.938;30.642;2023-02-21T10:53:45;99576.38;;;-7.13;55.83
48926;BME280;39838;59.938;30.642;2023-02-21T10:56:22;99570.22;;;-7.19;56.16
48926;BME280;39838;59.938;30.642;2023-02-21T10:58:52;99577.03;;;-7.18;55.75
48926;BME280;39838;59.938;30.642;2023-02-21T11:01:30;99522.41;;;-7.61;55.77
48926;BME280;39838;59.938;30.642;2023-02-21T11:03:59;99589.81;;;-7.29;55.93
48926;BME280;39838;59.938;30.642;2023-02-21T11:06:32;99554.78;;;-7.54;55.54
48926;BME280;39838;59.938;30.642;2023-02-21T11:09:23;99592.72;;;-7.38;55.50
48926;BME280;39838;59.938;30.642;2023-02-21T11:12:00;99588.53;;;-7.37;55.79
48926;BME280;39838;59.938;30.642;2023-02-21T11:14:29;99600.00;;;-7.43;55.33
48926;BME280;39838;59.938;30.642;2023-02-21T11:17:21;99595.56;;;-7.47;55.69
48926;BME280;39838;59.938;30.642;2023-02-21T11:19:50;99603.84;;;-7.49;55.53
48926;BME280;39838;59.938;30.642;2023-02-21T11:22:20;99612.19;;;-7.50;55.48
48926;BME280;39838;59.938;30.642;2023-02-21T11:25:02;99612.94;;;-7.66;55.35
48926;BME280;39838;59.938;30.642;2023-02-21T11:27:33;99610.69;;;-7.76;55.46
48926;BME280;39838;59.938;30.642;2023-02-21T11:30:02;99615.56;;;-7.79;55.86
48926;BME280;39838;59.938;30.642;2023-02-21T11:32:32;99612.41;;;-7.90;56.24
48926;BME280;39838;59.938;30.642;2023-02-21T11:35:06;99621.72;;;-7.89;55.89
48926;BME280;39838;59.938;30.642;2023-02-21T11:37:46;99622.09;;;-7.83;56.19
48926;BME280;39838;59.938;30.642;2023-02-21T11:40:25;99628.88;;;-7.82;55.66
48926;BME280;39838;59.938;30.642;2023-02-21T11:43:11;99635.13;;;-7.75;55.84
48926;BME280;39838;59.938;30.642;2023-02-21T11:45:42;99581.16;;;-8.07;55.83
48926;BME280;39838;59.938;30.642;2023-02-21T11:48:15;99644.53;;;-7.73;56.08
48926;BME280;39838;59.938;30.642;2023-02-21T11:50:48;99638.47;;;-7.61;56.27
48926;BME280;39838;59.938;30.642;2023-02-21T11:53:20;99643.34;;;-7.64;55.70
48926;BME280;39838;59.938;30.642;2023-02-21T11:55:57;99619.47;;;-7.84;55.70
48926;BME280;39838;59.938;30.642;2023-02-21T11:58:30;99626.34;;;-7.82;55.74
48926;BME280;39838;59.938;30.642;2023-02-21T12:01:03;99649.25;;;-7.64;56.14
48926;BME280;39838;59.938;30.642;2023-02-21T12:03:46;99650.38;;;-7.59;56.02
48926;BME280;39838;59.938;30.642;2023-02-21T12:06:20;99655.88;;;-7.51;56.07
48926;BME280;39838;59.938;30.642;2023-02-21T12:08:57;99655.97;;;-7.35;56.23
48926;BME280;39838;59.938;30.642;2023-02-21T12:11:49;99660.72;;;-7.25;55.18
48926;BME280;39838;59.938;30.642;2023-02-21T12:14:36;99669.03;;;-7.27;55.69
48926;BME280;39838;59.938;30.642;2023-02-21T12:17:14;99656.41;;;-7.42;55.20
48926;BME280;39838;59.938;30.642;2023-02-21T12:20:06;99679.81;;;-7.45;55.40
48926;BME280;39838;59.938;30.642;2023-02-21T12:22:58;99680.41;;;-7.49;55.40
48926;BME280;39838;59.938;30.642;2023-02-21T12:25:31;99684.38;;;-7.52;55.12
48926;BME280;39838;59.938;30.642;2023-02-21T12:28:13;99685.28;;;-7.52;55.57
48926;BME280;39838;59.938;30.642;2023-02-21T12:31:02;99689.78;;;-7.46;55.46
48926;BME280;39838;59.938;30.642;2023-02-21T12:33:40;99684.06;;;-7.44;55.55
48926;BME280;39838;59.938;30.642;2023-02-21T12:36:15;99689.06;;;-7.30;55.80
48926;BME280;39838;59.938;30.642;2023-02-21T12:39:02;99691.03;;;-7.25;55.73
48926;BME280;39838;59.938;30.642;2023-02-21T12:41:49;99697.56;;;-7.13;55.34
48926;BME280;39838;59.938;30.642;2023-02-21T12:44:23;99710.19;;;-7.13;55.00
48926;BME280;39838;59.938;30.642;2023-02-21T12:46:56;99704.19;;;-7.16;55.41
48926;BME280;39838;59.938;30.642;2023-02-21T12:49:28;99722.66;;;-7.17;55.17
48926;BME280;39838;59.938;30.642;2023-02-21T12:52:01;99724.81;;;-7.23;55.47
48926;BME280;39838;59.938;30.642;2023-02-21T12:54:41;99719.75;;;-7.37;55.39
48926;BME280;39838;59.938;30.642;2023-02-21T12:57:12;99737.50;;;-7.36;55.81
48926;BME280;39838;59.938;30.642;2023-02-21T12:59:50;99733.13;;;-7.38;55.92
48926;BME280;39838;59.938;30.642;2023-02-21T13:02:24;99746.09;;;-7.47;55.39
48926;BME280;39838;59.938;30.642;2023-02-21T13:04:56;99738.41;;;-7.63;55.96
48926;BME280;39838;59.938;30.642;2023-02-21T13:07:30;99753.63;;;-7.62;56.27
48926;BME280;39838;59.938;30.642;2023-02-21T13:10:03;99758.69;;;-7.62;56.45
48926;BME280;39838;59.938;30.642;2023-02-21T13:12:36;99765.38;;;-7.62;56.37
48926;BME280;39838;59.938;30.642;2023-02-21T13:15:16;99753.97;;;-7.71;56.34
48926;BME280;39838;59.938;30.642;2023-02-21T13:17:51;99770.06;;;-7.68;56.53
48926;BME280;39838;59.938;30.642;2023-02-21T13:20:24;99791.38;;;-7.63;56.29
48926;BME280;39838;59.938;30.642;2023-02-21T13:29:13;99807.50;;;-7.75;56.88
48926;BME280;39838;59.938;30.642;2023-02-21T13:31:45;99802.78;;;-7.83;56.56